Sturgis, MI

5:17 AM EST on December 11, 2017 (GMT -0500)
Kirsch Municipal

Weather History for KIRS - April, 2014

Change the Weather History Date:

Thursday, April 24, 2014

  Actual Average (KHAI) Record (KHAI)
Temperature  
Mean Temperature 52 °F -  
Max Temperature 57 °F 62 °F 85 °F (1960)
Min Temperature 46 °F 39 °F 25 °F (1967)
Degree Days  
Heating Degree Days 14    
Growing Degree Days 2 (Base 50)    
Moisture  
Dew Point 28 °F    
Average Humidity 43    
Maximum Humidity 62    
Minimum Humidity 27    
Precipitation  
Precipitation 0.00 in - - ()
Sea Level Pressure  
Sea Level Pressure 29.99 in    
Wind  
Wind Speed 10 mph (ESE)    
Max Wind Speed 20 mph    
Max Gust Speed 29 mph    
Visibility 10 miles    
Events Rain    
Averages and records for this station are not official NWS values.
T = Trace of Precipitation, MM = Missing Value Source: NWS Daily Summary

Daily Weather History Graph

Daily Weather History Graph

Search for Another Location

Airport or City:

Trip Planner

Search our weather history database for the weather conditions in past years. The results will help you decide how hot, cold, wet, or windy it might be!

Date:

Astronomy

Apr. 24, 2014 Rise Set
Actual Time 6:47 AM EDT 8:32 PM EDT
Civil Twilight 6:18 AM EDT 9:02 PM EDT
Nautical Twilight 5:42 AM EDT 9:38 PM EDT
Astronomical Twilight 5:03 AM EDT 10:17 PM EDT
Moon 4:03 AM EDT (4/24) 3:43 PM EDT (4/24)
Length of Visible Light 14h 44m
Length of Day
13h 44m
Waning Crescent, 24% of the Moon is Illuminated
Apr 24
Waning Crescent
Apr 29
New
May 6
First Quarter
May 14
Full
May 21
Last Quarter

Hourly Weather History & Observations

Time (EDT) Temp. Windchill Dew Point Humidity Pressure Visibility Wind Dir Wind Speed Gust Speed Precip Events Conditions
12:14 AM 48.2 °F - 32.0 °F 54% 30.08 in 10.0 mi NE 5.8 mph - N/A   Scattered Clouds
12:35 AM 46.4 °F 45.2 °F 32.0 °F 57% 30.07 in 10.0 mi NE 3.5 mph - N/A   Mostly Cloudy
12:55 AM 46.4 °F 45.2 °F 33.8 °F 62% 30.07 in 10.0 mi NE 3.5 mph - N/A   Overcast
1:14 AM 46.4 °F 44.3 °F 32.0 °F 57% 30.06 in 10.0 mi ENE 4.6 mph - N/A   Overcast
1:35 AM 46.4 °F 43.5 °F 30.2 °F 53% 30.06 in 10.0 mi East 5.8 mph - N/A   Overcast
1:55 AM 48.2 °F - 26.6 °F 43% 30.06 in 10.0 mi East 5.8 mph - N/A   Overcast
2:14 AM 48.2 °F - 24.8 °F 40% 30.06 in 10.0 mi East 8.1 mph - N/A   Overcast
2:35 AM 48.2 °F - 23.0 °F 37% 30.06 in 10.0 mi ESE 8.1 mph - N/A   Overcast
2:55 AM 48.2 °F - 21.2 °F 34% 30.06 in 10.0 mi East 6.9 mph - N/A   Mostly Cloudy
3:14 AM 48.2 °F - 23.0 °F 37% 30.07 in 10.0 mi ESE 5.8 mph - N/A   Mostly Cloudy
3:35 AM 48.2 °F - 26.6 °F 43% 30.08 in 10.0 mi East 5.8 mph - N/A   Mostly Cloudy
3:55 AM 48.2 °F - 28.4 °F 46% 30.08 in 10.0 mi ESE 9.2 mph - N/A   Mostly Cloudy
4:14 AM 48.2 °F - 30.2 °F 50% 30.08 in 10.0 mi ESE 9.2 mph - N/A   Mostly Cloudy
4:35 AM 48.2 °F - 30.2 °F 50% 30.08 in 10.0 mi ESE 8.1 mph - N/A   Overcast
4:55 AM 46.4 °F 42.9 °F 30.2 °F 53% 30.09 in 10.0 mi SE 6.9 mph - N/A   Mostly Cloudy
5:14 AM 46.4 °F 43.5 °F 30.2 °F 53% 30.10 in 10.0 mi SSE 5.8 mph - N/A   Mostly Cloudy
5:35 AM 46.4 °F 43.5 °F 30.2 °F 53% 30.10 in 10.0 mi SE 5.8 mph - N/A   Overcast
5:55 AM 46.4 °F 42.9 °F 32.0 °F 57% 30.09 in 10.0 mi SE 6.9 mph - N/A   Overcast
6:14 AM 46.4 °F 42.9 °F 32.0 °F 57% 30.08 in 10.0 mi ESE 6.9 mph - N/A   Mostly Cloudy
6:35 AM 46.4 °F 42.4 °F 32.0 °F 57% 30.08 in 10.0 mi East 8.1 mph - N/A   Overcast
6:55 AM 46.4 °F 42.9 °F 32.0 °F 57% 30.08 in 10.0 mi ESE 6.9 mph - N/A   Overcast
7:14 AM 46.4 °F 41.9 °F 32.0 °F 57% 30.10 in 10.0 mi SE 9.2 mph - N/A   Mostly Cloudy
7:35 AM 46.4 °F 43.5 °F 32.0 °F 57% 30.11 in 10.0 mi SE 5.8 mph - N/A   Mostly Cloudy
7:55 AM 46.4 °F 43.5 °F 33.8 °F 62% 30.11 in 10.0 mi SE 5.8 mph - N/A   Overcast
8:14 AM 46.4 °F 41.9 °F 32.0 °F 57% 30.12 in 10.0 mi SE 9.2 mph - N/A   Mostly Cloudy
8:35 AM 46.4 °F 41.5 °F 32.0 °F 57% 30.11 in 10.0 mi SE 10.4 mph - N/A   Scattered Clouds
8:55 AM 46.4 °F 41.5 °F 32.0 °F 57% 30.10 in 10.0 mi SE 10.4 mph 16.1 mph N/A   Scattered Clouds
9:14 AM 46.4 °F 40.7 °F 32.0 °F 57% 30.10 in 10.0 mi SE 12.7 mph - N/A   Scattered Clouds
9:35 AM 48.2 °F - 30.2 °F 50% 30.10 in 10.0 mi SE 10.4 mph - N/A   Clear
9:54 AM 48.2 °F - 30.2 °F 50% 30.10 in 10.0 mi SE 11.5 mph 17.3 mph N/A   Clear
10:15 AM 50.0 °F - 30.2 °F 47% 30.09 in 10.0 mi SE 15.0 mph - N/A   Clear
10:35 AM 51.8 °F - 28.4 °F 41% 30.09 in 10.0 mi SE 15.0 mph 19.6 mph N/A   Scattered Clouds
10:54 AM 51.8 °F - 26.6 °F 38% 30.09 in 10.0 mi SE 15.0 mph 20.7 mph N/A   Clear
11:15 AM 53.6 °F - 28.4 °F 38% 30.08 in 10.0 mi SE 12.7 mph 21.9 mph N/A   Clear
11:35 AM 51.8 °F - 26.6 °F 38% 30.07 in 10.0 mi SE 17.3 mph 25.3 mph N/A   Clear
11:54 AM 51.8 °F - 26.6 °F 38% 30.06 in 10.0 mi SE 17.3 mph 21.9 mph N/A   Clear
12:15 PM 53.6 °F - 28.4 °F 38% 30.05 in 10.0 mi ESE 19.6 mph - N/A   Clear
12:34 PM 55.4 °F - 26.6 °F 33% 30.04 in 10.0 mi ESE 19.6 mph 23.0 mph N/A   Clear
12:55 PM 55.4 °F - 26.6 °F 33% 30.03 in 10.0 mi SE 17.3 mph 24.2 mph N/A   Clear
1:15 PM 53.6 °F - 26.6 °F 35% 30.02 in 10.0 mi SE 15.0 mph - N/A   Clear
1:34 PM 55.4 °F - 26.6 °F 33% 30.02 in 10.0 mi SE 13.8 mph 23.0 mph N/A   Clear
1:55 PM 55.4 °F - 24.8 °F 31% 30.01 in 10.0 mi ESE 17.3 mph 26.5 mph N/A   Clear
2:14 PM 57.2 °F - 24.8 °F 29% 30.00 in 10.0 mi SE 13.8 mph 25.3 mph N/A   Clear
2:35 PM 57.2 °F - 24.8 °F 29% 29.99 in 10.0 mi SE 17.3 mph 25.3 mph N/A   Clear
2:55 PM 57.2 °F - 23.0 °F 27% 29.98 in 10.0 mi SE 16.1 mph 24.2 mph N/A   Clear
3:14 PM 57.2 °F - 24.8 °F 29% 29.97 in 10.0 mi ESE 13.8 mph 24.2 mph N/A   Clear
3:35 PM 57.2 °F - 23.0 °F 27% 29.96 in 10.0 mi ESE 18.4 mph 25.3 mph N/A   Clear
3:55 PM 57.2 °F - 23.0 °F 27% 29.96 in 10.0 mi SE 15.0 mph 20.7 mph N/A   Clear
4:14 PM 57.2 °F - 23.0 °F 27% 29.95 in 10.0 mi ESE 19.6 mph 25.3 mph N/A   Clear
4:35 PM 57.2 °F - 24.8 °F 29% 29.93 in 10.0 mi SE 16.1 mph 27.6 mph N/A   Scattered Clouds
4:55 PM 55.4 °F - 23.0 °F 29% 29.92 in 10.0 mi ESE 18.4 mph 24.2 mph N/A   Scattered Clouds
5:14 PM 57.2 °F - 24.8 °F 29% 29.91 in 10.0 mi ESE 13.8 mph 18.4 mph N/A   Scattered Clouds
5:35 PM 55.4 °F - 26.6 °F 33% 29.88 in 10.0 mi ESE 17.3 mph 27.6 mph N/A Rain Rain
5:54 PM 55.4 °F - 24.8 °F 31% 29.88 in 10.0 mi SE 16.1 mph 19.6 mph N/A   Clear
6:15 PM 55.4 °F - 24.8 °F 31% 29.88 in 10.0 mi ESE 17.3 mph 25.3 mph N/A   Clear
6:34 PM 55.4 °F - 24.8 °F 31% 29.88 in 10.0 mi ESE 16.1 mph 25.3 mph N/A   Clear
6:55 PM 55.4 °F - 24.8 °F 31% 29.86 in 10.0 mi SE 19.6 mph 26.5 mph N/A   Clear
7:15 PM 53.6 °F - 24.8 °F 33% 29.86 in 10.0 mi ESE 16.1 mph 28.8 mph N/A   Clear
7:34 PM 53.6 °F - 24.8 °F 33% 29.85 in 10.0 mi ESE 17.3 mph 24.2 mph N/A   Clear
7:54 PM 53.6 °F - 24.8 °F 33% 29.84 in 10.0 mi ESE 19.6 mph - N/A   Clear
8:15 PM 51.8 °F - 24.8 °F 35% 29.83 in 10.0 mi ESE 19.6 mph 28.8 mph N/A   Clear
8:34 PM 51.8 °F - 26.6 °F 38% 29.82 in 10.0 mi ESE 16.1 mph 23.0 mph N/A   Clear
8:54 PM 51.8 °F - 28.4 °F 41% 29.82 in 10.0 mi ESE 16.1 mph 25.3 mph N/A   Clear
9:15 PM 50.0 °F - 28.4 °F 43% 29.82 in 10.0 mi ESE 16.1 mph - N/A   Clear
9:34 PM 48.2 °F - 28.4 °F 46% 29.82 in 10.0 mi ESE 15.0 mph 21.9 mph N/A   Clear
9:55 PM 48.2 °F - 28.4 °F 46% 29.82 in 10.0 mi ESE 13.8 mph 18.4 mph N/A   Clear
10:15 PM 48.2 °F - 28.4 °F 46% 29.81 in 10.0 mi ESE 11.5 mph 18.4 mph N/A   Clear
10:34 PM 48.2 °F - 28.4 °F 46% 29.82 in 10.0 mi ESE 11.5 mph 16.1 mph N/A   Clear
10:55 PM 48.2 °F - 28.4 °F 46% 29.82 in 10.0 mi ESE 9.2 mph 18.4 mph N/A   Clear
11:15 PM 48.2 °F - 26.6 °F 43% 29.81 in 10.0 mi ESE 9.2 mph - N/A   Clear
11:34 PM 46.4 °F 41.5 °F 28.4 °F 50% 29.79 in 10.0 mi East 10.4 mph - N/A   Clear
11:55 PM 46.4 °F 41.1 °F 26.6 °F 46% 29.78 in 10.0 mi East 11.5 mph - N/A   Clear